sensor_id;sensor_type;location;lat;lon;timestamp;temperature;humidity
46732;DHT22;32477;51.474;5.696;2022-07-23T00:03:33;15.80;99.90
46732;DHT22;32477;51.474;5.696;2022-07-23T00:05:59;15.70;99.90
46732;DHT22;32477;51.474;5.696;2022-07-23T00:08:29;15.70;99.90
46732;DHT22;32477;51.474;5.696;2022-07-23T00:10:55;15.60;99.90
46732;DHT22;32477;51.474;5.696;2022-07-23T00:13:45;15.60;99.90
46732;DHT22;32477;51.474;5.696;2022-07-23T00:16:13;15.50;99.90
46732;DHT22;32477;51.474;5.696;2022-07-23T00:18:43;15.50;99.90
46732;DHT22;32477;51.474;5.696;2022-07-23T00:21:10;15.50;99.90
46732;DHT22;32477;51.474;5.696;2022-07-23T00:24:20;15.40;99.90
46732;DHT22;32477;51.474;5.696;2022-07-23T00:27:26;15.40;99.90
46732;DHT22;32477;51.474;5.696;2022-07-23T00:30:01;15.40;99.90
46732;DHT22;32477;51.474;5.696;2022-07-23T00:32:28;15.30;99.90
46732;DHT22;32477;51.474;5.696;2022-07-23T00:34:54;15.30;99.90
46732;DHT22;32477;51.474;5.696;2022-07-23T00:37:28;15.30;99.90
46732;DHT22;32477;51.474;5.696;2022-07-23T00:39:58;15.10;99.90
46732;DHT22;32477;51.474;5.696;2022-07-23T00:42:31;15.10;99.90
46732;DHT22;32477;51.474;5.696;2022-07-23T00:45:03;15.00;99.90
46732;DHT22;32477;51.474;5.696;2022-07-23T00:47:39;14.90;99.90
46732;DHT22;32477;51.474;5.696;2022-07-23T00:50:16;14.80;99.90
46732;DHT22;32477;51.474;5.696;2022-07-23T00:52:42;14.80;99.90
46732;DHT22;32477;51.474;5.696;2022-07-23T00:55:12;14.80;99.90
46732;DHT22;32477;51.474;5.696;2022-07-23T00:57:41;14.80;99.90
46732;DHT22;32477;51.474;5.696;2022-07-23T01:00:18;14.80;99.90
46732;DHT22;32477;51.474;5.696;2022-07-23T01:03:03;14.70;99.90
46732;DHT22;32477;51.474;5.696;2022-07-23T01:05:44;14.70;99.90
46732;DHT22;32477;51.474;5.696;2022-07-23T01:08:25;14.70;99.90
46732;DHT22;32477;51.474;5.696;2022-07-23T01:10:54;14.60;99.90
46732;DHT22;32477;51.474;5.696;2022-07-23T01:17:00;14.60;99.90
46732;DHT22;32477;51.474;5.696;2022-07-23T01:19:43;14.60;99.90
46732;DHT22;32477;51.474;5.696;2022-07-23T01:22:34;14.60;99.90
46732;DHT22;32477;51.474;5.696;2022-07-23T01:25:15;14.60;99.90
46732;DHT22;32477;51.474;5.696;2022-07-23T01:28:03;14.50;99.90
46732;DHT22;32477;51.474;5.696;2022-07-23T01:31:16;14.50;99.90
46732;DHT22;32477;51.474;5.696;2022-07-23T01:37:29;14.30;99.90
46732;DHT22;32477;51.474;5.696;2022-07-23T01:40:21;14.30;99.90
46732;DHT22;32477;51.474;5.696;2022-07-23T01:43:23;14.30;99.90
46732;DHT22;32477;51.474;5.696;2022-07-23T01:46:28;14.20;99.90
46732;DHT22;32477;51.474;5.696;2022-07-23T01:52:37;14.10;99.90
46732;DHT22;32477;51.474;5.696;2022-07-23T01:55:28;14.10;99.90
46732;DHT22;32477;51.474;5.696;2022-07-23T01:58:11;14.10;99.90
46732;DHT22;32477;51.474;5.696;2022-07-23T02:04:06;14.00;99.90
46732;DHT22;32477;51.474;5.696;2022-07-23T02:06:52;13.90;99.90
46732;DHT22;32477;51.474;5.696;2022-07-23T02:10:21;13.80;99.90
46732;DHT22;32477;51.474;5.696;2022-07-23T02:16:14;13.80;99.90
46732;DHT22;32477;51.474;5.696;2022-07-23T02:19:24;13.80;99.90
46732;DHT22;32477;51.474;5.696;2022-07-23T02:22:05;13.80;99.90
46732;DHT22;32477;51.474;5.696;2022-07-23T02:24:51;13.80;99.90
46732;DHT22;32477;51.474;5.696;2022-07-23T02:27:50;13.80;99.90
46732;DHT22;32477;51.474;5.696;2022-07-23T02:33:58;13.50;99.90
46732;DHT22;32477;51.474;5.696;2022-07-23T02:36:54;13.40;99.90
46732;DHT22;32477;51.474;5.696;2022-07-23T02:40:17;13.50;99.90
46732;DHT22;32477;51.474;5.696;2022-07-23T02:43:08;13.40;99.90
46732;DHT22;32477;51.474;5.696;2022-07-23T02:45:53;13.30;99.90
46732;DHT22;32477;51.474;5.696;2022-07-23T02:48:58;13.30;99.90
46732;DHT22;32477;51.474;5.696;2022-07-23T02:52:02;13.30;99.90
46732;DHT22;32477;51.474;5.696;2022-07-23T02:54:48;13.30;99.90
46732;DHT22;32477;51.474;5.696;2022-07-23T02:57:50;13.30;99.90
46732;DHT22;32477;51.474;5.696;2022-07-23T03:00:47;13.30;99.90
46732;DHT22;32477;51.474;5.696;2022-07-23T03:03:28;13.20;99.90
46732;DHT22;32477;51.474;5.696;2022-07-23T03:09:24;13.20;99.90
46732;DHT22;32477;51.474;5.696;2022-07-23T03:12:04;13.10;99.90
46732;DHT22;32477;51.474;5.696;2022-07-23T03:18:14;13.10;99.90
46732;DHT22;32477;51.474;5.696;2022-07-23T03:20:48;13.10;99.90
46732;DHT22;32477;51.474;5.696;2022-07-23T03:23:49;13.00;99.90
46732;DHT22;32477;51.474;5.696;2022-07-23T03:30:00;13.00;99.90
46732;DHT22;32477;51.474;5.696;2022-07-23T03:33:07;13.00;99.90
46732;DHT22;32477;51.474;5.696;2022-07-23T03:46:07;13.00;99.90
46732;DHT22;32477;51.474;5.696;2022-07-23T03:52:17;12.90;99.90
46732;DHT22;32477;51.474;5.696;2022-07-23T03:55:29;12.90;99.90
46732;DHT22;32477;51.474;5.696;2022-07-23T03:58:23;12.80;99.90
46732;DHT22;32477;51.474;5.696;2022-07-23T04:01:12;12.80;99.90
46732;DHT22;32477;51.474;5.696;2022-07-23T04:04:01;12.80;99.90
46732;DHT22;32477;51.474;5.696;2022-07-23T04:06:57;12.70;99.90
46732;DHT22;32477;51.474;5.696;2022-07-23T04:09:52;12.70;99.90
46732;DHT22;32477;51.474;5.696;2022-07-23T04:12:51;12.70;99.90
46732;DHT22;32477;51.474;5.696;2022-07-23T04:25:25;12.90;99.90
46732;DHT22;32477;51.474;5.696;2022-07-23T04:28:23;13.00;99.90
46732;DHT22;32477;51.474;5.696;2022-07-23T04:31:39;13.00;99.90
46732;DHT22;32477;51.474;5.696;2022-07-23T04:34:31;13.10;99.90
46732;DHT22;32477;51.474;5.696;2022-07-23T04:37:52;13.10;99.90
46732;DHT22;32477;51.474;5.696;2022-07-23T04:44:22;13.30;99.90
46732;DHT22;32477;51.474;5.696;2022-07-23T04:47:30;13.30;99.90
46732;DHT22;32477;51.474;5.696;2022-07-23T04:50:25;13.40;99.90
46732;DHT22;32477;51.474;5.696;2022-07-23T04:53:40;13.50;99.90
46732;DHT22;32477;51.474;5.696;2022-07-23T04:56:26;13.60;99.90
46732;DHT22;32477;51.474;5.696;2022-07-23T04:59:19;13.70;99.90
46732;DHT22;32477;51.474;5.696;2022-07-23T05:04:55;13.90;99.90
46732;DHT22;32477;51.474;5.696;2022-07-23T05:07:46;13.90;99.90
46732;DHT22;32477;51.474;5.696;2022-07-23T05:10:22;14.10;99.90
46732;DHT22;32477;51.474;5.696;2022-07-23T05:13:08;14.20;99.90
46732;DHT22;32477;51.474;5.696;2022-07-23T05:15:46;14.30;99.90
46732;DHT22;32477;51.474;5.696;2022-07-23T05:18:16;14.40;99.90
46732;DHT22;32477;51.474;5.696;2022-07-23T05:20:43;14.50;99.90
46732;DHT22;32477;51.474;5.696;2022-07-23T05:23:15;14.60;99.90
46732;DHT22;32477;51.474;5.696;2022-07-23T05:25:48;14.70;99.90
46732;DHT22;32477;51.474;5.696;2022-07-23T05:28:16;14.80;99.90
46732;DHT22;32477;51.474;5.696;2022-07-23T05:30:45;14.90;99.90
46732;DHT22;32477;51.474;5.696;2022-07-23T05:33:33;15.00;99.90
46732;DHT22;32477;51.474;5.696;2022-07-23T05:36:02;15.10;99.90
46732;DHT22;32477;51.474;5.696;2022-07-23T05:38:41;15.30;99.90
46732;DHT22;32477;51.474;5.696;2022-07-23T05:41:11;15.50;99.90
46732;DHT22;32477;51.474;5.696;2022-07-23T05:43:40;15.60;99.90
46732;DHT22;32477;51.474;5.696;2022-07-23T05:46:13;15.80;99.90
46732;DHT22;32477;51.474;5.696;2022-07-23T05:48:41;16.10;99.90
46732;DHT22;32477;51.474;5.696;2022-07-23T05:51:08;16.40;99.90
46732;DHT22;32477;51.474;5.696;2022-07-23T05:53:34;16.80;99.90
46732;DHT22;32477;51.474;5.696;2022-07-23T05:56:12;17.30;99.90
46732;DHT22;32477;51.474;5.696;2022-07-23T05:58:45;17.70;99.90
46732;DHT22;32477;51.474;5.696;2022-07-23T06:01:36;18.00;99.90
46732;DHT22;32477;51.474;5.696;2022-07-23T06:08:55;18.90;99.90
46732;DHT22;32477;51.474;5.696;2022-07-23T06:15:24;19.70;99.90
46732;DHT22;32477;51.474;5.696;2022-07-23T06:17:50;20.00;99.90
46732;DHT22;32477;51.474;5.696;2022-07-23T06:20:16;20.30;99.90
46732;DHT22;32477;51.474;5.696;2022-07-23T06:22:42;20.50;99.90
46732;DHT22;32477;51.474;5.696;2022-07-23T06:25:11;21.00;99.90
46732;DHT22;32477;51.474;5.696;2022-07-23T06:27:40;21.40;99.90
46732;DHT22;32477;51.474;5.696;2022-07-23T06:30:09;21.70;99.90
46732;DHT22;32477;51.474;5.696;2022-07-23T06:32:45;22.10;99.90
46732;DHT22;32477;51.474;5.696;2022-07-23T06:35:12;22.40;99.90
46732;DHT22;32477;51.474;5.696;2022-07-23T06:37:38;22.50;99.90
46732;DHT22;32477;51.474;5.696;2022-07-23T06:40:04;22.60;99.90
46732;DHT22;32477;51.474;5.696;2022-07-23T06:42:31;22.80;99.90
46732;DHT22;32477;51.474;5.696;2022-07-23T06:44:58;23.10;99.90
46732;DHT22;32477;51.474;5.696;2022-07-23T06:47:25;23.00;99.90
46732;DHT22;32477;51.474;5.696;2022-07-23T06:49:51;22.70;99.90
46732;DHT22;32477;51.474;5.696;2022-07-23T06:52:18;22.50;99.90
46732;DHT22;32477;51.474;5.696;2022-07-23T08:35:45;28.40;87.20
46732;DHT22;32477;51.474;5.696;2022-07-23T08:38:16;28.30;87.20
46732;DHT22;32477;51.474;5.696;2022-07-23T08:40:45;28.70;84.50
46732;DHT22;32477;51.474;5.696;2022-07-23T08:43:33;29.10;83.10
46732;DHT22;32477;51.474;5.696;2022-07-23T08:46:01;29.00;80.90
46732;DHT22;32477;51.474;5.696;2022-07-23T08:48:32;29.00;82.00
46732;DHT22;32477;51.474;5.696;2022-07-23T08:51:02;29.50;81.10
46732;DHT22;32477;51.474;5.696;2022-07-23T08:53:31;30.00;79.90
46732;DHT22;32477;51.474;5.696;2022-07-23T08:56:00;29.50;78.10
46732;DHT22;32477;51.474;5.696;2022-07-23T08:58:29;28.60;79.20
46732;DHT22;32477;51.474;5.696;2022-07-23T09:00:56;28.80;79.90
46732;DHT22;32477;51.474;5.696;2022-07-23T09:03:31;29.30;79.40
46732;DHT22;32477;51.474;5.696;2022-07-23T09:05:58;29.80;78.20
46732;DHT22;32477;51.474;5.696;2022-07-23T09:08:38;30.00;79.10
46732;DHT22;32477;51.474;5.696;2022-07-23T09:11:07;29.40;77.40
46732;DHT22;32477;51.474;5.696;2022-07-23T09:16:24;29.00;78.20
46732;DHT22;32477;51.474;5.696;2022-07-23T09:18:53;29.10;79.00
46732;DHT22;32477;51.474;5.696;2022-07-23T09:21:25;29.40;77.80
46732;DHT22;32477;51.474;5.696;2022-07-23T09:24:06;29.00;78.90
46732;DHT22;32477;51.474;5.696;2022-07-23T09:28:59;29.90;77.80
46732;DHT22;32477;51.474;5.696;2022-07-23T09:31:34;29.80;77.30
46732;DHT22;32477;51.474;5.696;2022-07-23T09:34:17;30.20;77.50
46732;DHT22;32477;51.474;5.696;2022-07-23T09:36:43;29.80;76.10
46732;DHT22;32477;51.474;5.696;2022-07-23T09:39:11;29.90;77.30
46732;DHT22;32477;51.474;5.696;2022-07-23T09:41:39;29.30;78.50
46732;DHT22;32477;51.474;5.696;2022-07-23T09:44:10;29.10;79.60
46732;DHT22;32477;51.474;5.696;2022-07-23T09:46:37;29.20;78.40
46732;DHT22;32477;51.474;5.696;2022-07-23T09:49:20;29.60;77.40
46732;DHT22;32477;51.474;5.696;2022-07-23T09:51:54;29.00;77.30
46732;DHT22;32477;51.474;5.696;2022-07-23T09:57:11;28.60;80.40
46732;DHT22;32477;51.474;5.696;2022-07-23T09:59:42;28.60;79.60
46732;DHT22;32477;51.474;5.696;2022-07-23T10:02:10;29.20;78.50
46732;DHT22;32477;51.474;5.696;2022-07-23T10:07:52;29.50;75.50
46732;DHT22;32477;51.474;5.696;2022-07-23T10:10:33;29.60;76.00
46732;DHT22;32477;51.474;5.696;2022-07-23T10:13:05;30.00;75.50
46732;DHT22;32477;51.474;5.696;2022-07-23T10:15:54;30.30;75.70
46732;DHT22;32477;51.474;5.696;2022-07-23T10:32:04;30.20;74.00
46732;DHT22;32477;51.474;5.696;2022-07-23T10:41:48;31.10;69.70
46732;DHT22;32477;51.474;5.696;2022-07-23T10:44:21;31.20;68.20
46732;DHT22;32477;51.474;5.696;2022-07-23T10:46:59;31.50;69.00
46732;DHT22;32477;51.474;5.696;2022-07-23T10:49:33;31.80;69.50
46732;DHT22;32477;51.474;5.696;2022-07-23T10:52:20;31.90;68.90
46732;DHT22;32477;51.474;5.696;2022-07-23T10:57:18;32.80;66.60
46732;DHT22;32477;51.474;5.696;2022-07-23T11:02:31;33.70;64.20
46732;DHT22;32477;51.474;5.696;2022-07-23T11:05:07;33.70;66.30
46732;DHT22;32477;51.474;5.696;2022-07-23T11:07:34;33.00;66.00
46732;DHT22;32477;51.474;5.696;2022-07-23T11:10:00;31.60;66.80
46732;DHT22;32477;51.474;5.696;2022-07-23T11:15:11;31.20;68.30
46732;DHT22;32477;51.474;5.696;2022-07-23T11:17:58;32.10;67.90
46732;DHT22;32477;51.474;5.696;2022-07-23T11:20:25;31.70;68.30
46732;DHT22;32477;51.474;5.696;2022-07-23T11:22:55;32.30;67.90
46732;DHT22;32477;51.474;5.696;2022-07-23T11:27:48;32.30;66.20
46732;DHT22;32477;51.474;5.696;2022-07-23T11:33:38;31.90;65.70
46732;DHT22;32477;51.474;5.696;2022-07-23T11:35:41;31.40;67.70
46732;DHT22;32477;51.474;5.696;2022-07-23T11:38:14;31.40;67.30
46732;DHT22;32477;51.474;5.696;2022-07-23T11:40:41;32.40;67.80
46732;DHT22;32477;51.474;5.696;2022-07-23T11:43:11;32.00;68.20
46732;DHT22;32477;51.474;5.696;2022-07-23T11:45:44;30.90;67.80
46732;DHT22;32477;51.474;5.696;2022-07-23T11:48:22;30.90;69.50
46732;DHT22;32477;51.474;5.696;2022-07-23T11:50:53;32.10;68.00
46732;DHT22;32477;51.474;5.696;2022-07-23T11:53:29;32.50;68.00
46732;DHT22;32477;51.474;5.696;2022-07-23T11:56:06;32.30;67.70
46732;DHT22;32477;51.474;5.696;2022-07-23T11:58:38;32.70;67.10
46732;DHT22;32477;51.474;5.696;2022-07-23T12:01:04;32.60;66.70
46732;DHT22;32477;51.474;5.696;2022-07-23T12:03:30;32.60;67.60
46732;DHT22;32477;51.474;5.696;2022-07-23T12:05:59;33.10;67.40
46732;DHT22;32477;51.474;5.696;2022-07-23T12:08:27;32.90;66.60
46732;DHT22;32477;51.474;5.696;2022-07-23T12:10:53;32.80;65.40
46732;DHT22;32477;51.474;5.696;2022-07-23T12:13:21;32.30;66.50
46732;DHT22;32477;51.474;5.696;2022-07-23T12:15:50;32.70;66.20
46732;DHT22;32477;51.474;5.696;2022-07-23T12:18:20;33.30;65.60
46732;DHT22;32477;51.474;5.696;2022-07-23T12:20:51;32.90;64.10
46732;DHT22;32477;51.474;5.696;2022-07-23T12:23:25;33.10;64.40
46732;DHT22;32477;51.474;5.696;2022-07-23T12:25:52;32.60;64.00
46732;DHT22;32477;51.474;5.696;2022-07-23T12:28:21;32.90;65.00
46732;DHT22;32477;51.474;5.696;2022-07-23T12:30:53;33.40;63.50
46732;DHT22;32477;51.474;5.696;2022-07-23T12:33:26;33.80;63.50
46732;DHT22;32477;51.474;5.696;2022-07-23T12:35:55;34.50;63.10
46732;DHT22;32477;51.474;5.696;2022-07-23T12:38:23;35.10;62.00
46732;DHT22;32477;51.474;5.696;2022-07-23T12:40:52;34.90;61.00
46732;DHT22;32477;51.474;5.696;2022-07-23T12:46:07;32.20;64.50
46732;DHT22;32477;51.474;5.696;2022-07-23T12:48:52;32.00;65.20
46732;DHT22;32477;51.474;5.696;2022-07-23T12:53:56;31.80;64.50
46732;DHT22;32477;51.474;5.696;2022-07-23T12:56:46;32.30;64.40
46732;DHT22;32477;51.474;5.696;2022-07-23T12:59:14;33.30;64.40
46732;DHT22;32477;51.474;5.696;2022-07-23T13:01:52;33.30;63.60
46732;DHT22;32477;51.474;5.696;2022-07-23T13:04:20;33.90;63.10
46732;DHT22;32477;51.474;5.696;2022-07-23T13:06:54;34.30;61.90
46732;DHT22;32477;51.474;5.696;2022-07-23T13:09:24;33.20;62.50
46732;DHT22;32477;51.474;5.696;2022-07-23T13:11:55;33.30;62.30
46732;DHT22;32477;51.474;5.696;2022-07-23T13:14:22;33.50;61.40
46732;DHT22;32477;51.474;5.696;2022-07-23T13:16:52;33.20;62.40
46732;DHT22;32477;51.474;5.696;2022-07-23T13:19:23;33.30;62.10
46732;DHT22;32477;51.474;5.696;2022-07-23T13:21:50;32.90;61.80
46732;DHT22;32477;51.474;5.696;2022-07-23T13:24:20;32.60;61.90
46732;DHT22;32477;51.474;5.696;2022-07-23T13:26:46;32.10;63.10
46732;DHT22;32477;51.474;5.696;2022-07-23T13:29:12;31.90;63.20
46732;DHT22;32477;51.474;5.696;2022-07-23T13:34:13;33.00;62.50
46732;DHT22;32477;51.474;5.696;2022-07-23T13:36:39;31.20;64.10
46732;DHT22;32477;51.474;5.696;2022-07-23T13:39:09;30.60;66.80
46732;DHT22;32477;51.474;5.696;2022-07-23T13:41:37;31.20;66.00
46732;DHT22;32477;51.474;5.696;2022-07-23T13:44:08;31.80;64.90
46732;DHT22;32477;51.474;5.696;2022-07-23T13:46:40;31.90;63.60
46732;DHT22;32477;51.474;5.696;2022-07-23T13:49:11;32.50;62.90
46732;DHT22;32477;51.474;5.696;2022-07-23T13:51:42;32.60;62.70
46732;DHT22;32477;51.474;5.696;2022-07-23T13:54:08;32.30;63.80
46732;DHT22;32477;51.474;5.696;2022-07-23T13:56:33;31.50;64.00
46732;DHT22;32477;51.474;5.696;2022-07-23T13:59:01;30.90;65.60
46732;DHT22;32477;51.474;5.696;2022-07-23T14:01:27;30.60;65.70
46732;DHT22;32477;51.474;5.696;2022-07-23T14:03:55;30.50;66.50
46732;DHT22;32477;51.474;5.696;2022-07-23T14:06:21;30.50;66.90
46732;DHT22;32477;51.474;5.696;2022-07-23T14:08:46;30.90;66.60
46732;DHT22;32477;51.474;5.696;2022-07-23T14:11:12;30.60;66.50
46732;DHT22;32477;51.474;5.696;2022-07-23T14:13:45;31.00;66.80
46732;DHT22;32477;51.474;5.696;2022-07-23T14:18:57;32.00;64.80
46732;DHT22;32477;51.474;5.696;2022-07-23T14:21:23;31.90;63.90
46732;DHT22;32477;51.474;5.696;2022-07-23T14:23:49;31.70;64.50
46732;DHT22;32477;51.474;5.696;2022-07-23T14:26:15;31.50;64.00
46732;DHT22;32477;51.474;5.696;2022-07-23T14:28:44;30.90;65.40
46732;DHT22;32477;51.474;5.696;2022-07-23T14:31:09;31.80;64.10
46732;DHT22;32477;51.474;5.696;2022-07-23T14:33:37;31.50;64.00
46732;DHT22;32477;51.474;5.696;2022-07-23T14:36:03;31.30;63.80
46732;DHT22;32477;51.474;5.696;2022-07-23T14:38:32;31.20;64.30
46732;DHT22;32477;51.474;5.696;2022-07-23T14:41:00;31.10;64.90
46732;DHT22;32477;51.474;5.696;2022-07-23T14:43:26;31.00;65.10
46732;DHT22;32477;51.474;5.696;2022-07-23T14:45:55;30.10;65.60
46732;DHT22;32477;51.474;5.696;2022-07-23T14:48:26;29.50;66.60
46732;DHT22;32477;51.474;5.696;2022-07-23T14:50:52;29.30;68.10
46732;DHT22;32477;51.474;5.696;2022-07-23T14:53:18;29.10;68.00
46732;DHT22;32477;51.474;5.696;2022-07-23T14:55:44;29.00;67.70
46732;DHT22;32477;51.474;5.696;2022-07-23T14:58:10;28.70;68.70
46732;DHT22;32477;51.474;5.696;2022-07-23T15:00:37;28.80;68.90
46732;DHT22;32477;51.474;5.696;2022-07-23T15:03:03;28.90;69.50
46732;DHT22;32477;51.474;5.696;2022-07-23T15:05:29;28.90;69.70
46732;DHT22;32477;51.474;5.696;2022-07-23T15:07:56;28.80;69.30
46732;DHT22;32477;51.474;5.696;2022-07-23T15:10:24;28.70;69.50
46732;DHT22;32477;51.474;5.696;2022-07-23T15:12:56;28.60;69.40
46732;DHT22;32477;51.474;5.696;2022-07-23T15:15:29;28.50;70.50
46732;DHT22;32477;51.474;5.696;2022-07-23T15:17:55;28.40;70.20
46732;DHT22;32477;51.474;5.696;2022-07-23T15:20:21;28.10;71.10
46732;DHT22;32477;51.474;5.696;2022-07-23T15:22:47;28.30;70.00
46732;DHT22;32477;51.474;5.696;2022-07-23T15:25:15;28.10;70.30
46732;DHT22;32477;51.474;5.696;2022-07-23T15:27:53;27.90;70.20
46732;DHT22;32477;51.474;5.696;2022-07-23T15:30:20;28.00;71.20
46732;DHT22;32477;51.474;5.696;2022-07-23T15:32:47;27.90;70.50
46732;DHT22;32477;51.474;5.696;2022-07-23T15:35:13;27.70;71.20
46732;DHT22;32477;51.474;5.696;2022-07-23T15:37:58;27.60;71.50
46732;DHT22;32477;51.474;5.696;2022-07-23T15:40:29;27.40;71.00
46732;DHT22;32477;51.474;5.696;2022-07-23T15:43:06;27.30;71.30
46732;DHT22;32477;51.474;5.696;2022-07-23T15:45:32;27.20;71.60
46732;DHT22;32477;51.474;5.696;2022-07-23T15:48:08;27.00;72.20
46732;DHT22;32477;51.474;5.696;2022-07-23T15:50:37;27.00;72.70
46732;DHT22;32477;51.474;5.696;2022-07-23T15:53:03;27.40;73.00
46732;DHT22;32477;51.474;5.696;2022-07-23T15:55:31;27.50;72.00
46732;DHT22;32477;51.474;5.696;2022-07-23T15:57:58;27.40;72.40
46732;DHT22;32477;51.474;5.696;2022-07-23T16:00:25;27.70;71.70
46732;DHT22;32477;51.474;5.696;2022-07-23T16:02:59;27.60;71.40
46732;DHT22;32477;51.474;5.696;2022-07-23T16:05:25;27.20;72.60
46732;DHT22;32477;51.474;5.696;2022-07-23T16:08:01;27.00;74.10
46732;DHT22;32477;51.474;5.696;2022-07-23T16:10:27;27.10;74.10
46732;DHT22;32477;51.474;5.696;2022-07-23T16:12:54;27.50;72.70
46732;DHT22;32477;51.474;5.696;2022-07-23T16:15:21;27.70;72.20
46732;DHT22;32477;51.474;5.696;2022-07-23T16:17:47;27.80;72.50
46732;DHT22;32477;51.474;5.696;2022-07-23T16:20:17;27.80;72.30
46732;DHT22;32477;51.474;5.696;2022-07-23T16:22:42;27.80;72.60
46732;DHT22;32477;51.474;5.696;2022-07-23T16:25:09;27.70;73.20
46732;DHT22;32477;51.474;5.696;2022-07-23T16:27:40;27.70;73.80
46732;DHT22;32477;51.474;5.696;2022-07-23T16:30:09;27.70;73.70
46732;DHT22;32477;51.474;5.696;2022-07-23T16:32:39;27.40;73.10
46732;DHT22;32477;51.474;5.696;2022-07-23T16:35:07;27.40;74.20
46732;DHT22;32477;51.474;5.696;2022-07-23T16:37:43;27.20;73.60
46732;DHT22;32477;51.474;5.696;2022-07-23T16:40:11;26.90;74.20
46732;DHT22;32477;51.474;5.696;2022-07-23T16:42:37;26.70;74.20
46732;DHT22;32477;51.474;5.696;2022-07-23T16:45:13;26.70;74.50
46732;DHT22;32477;51.474;5.696;2022-07-23T16:47:44;26.80;75.30
46732;DHT22;32477;51.474;5.696;2022-07-23T16:50:18;27.00;75.20
46732;DHT22;32477;51.474;5.696;2022-07-23T16:52:43;26.90;74.70
46732;DHT22;32477;51.474;5.696;2022-07-23T16:55:12;26.60;74.80
46732;DHT22;32477;51.474;5.696;2022-07-23T16:57:43;26.50;74.70
46732;DHT22;32477;51.474;5.696;2022-07-23T17:00:09;26.40;75.60
46732;DHT22;32477;51.474;5.696;2022-07-23T17:02:39;26.40;76.40
46732;DHT22;32477;51.474;5.696;2022-07-23T17:05:06;26.30;76.40
46732;DHT22;32477;51.474;5.696;2022-07-23T17:07:34;26.30;76.00
46732;DHT22;32477;51.474;5.696;2022-07-23T17:10:00;26.30;76.80
46732;DHT22;32477;51.474;5.696;2022-07-23T17:12:26;26.40;76.10
46732;DHT22;32477;51.474;5.696;2022-07-23T17:14:52;26.40;76.90
46732;DHT22;32477;51.474;5.696;2022-07-23T17:17:18;26.70;76.10
46732;DHT22;32477;51.474;5.696;2022-07-23T17:19:44;26.70;75.70
46732;DHT22;32477;51.474;5.696;2022-07-23T17:22:10;26.70;77.00
46732;DHT22;32477;51.474;5.696;2022-07-23T17:24:48;26.70;76.40
46732;DHT22;32477;51.474;5.696;2022-07-23T17:27:14;26.60;75.70
46732;DHT22;32477;51.474;5.696;2022-07-23T17:29:40;26.30;76.40
46732;DHT22;32477;51.474;5.696;2022-07-23T17:32:32;26.40;77.10
46732;DHT22;32477;51.474;5.696;2022-07-23T17:35:26;26.30;76.30
46732;DHT22;32477;51.474;5.696;2022-07-23T17:38:08;26.20;76.50
46732;DHT22;32477;51.474;5.696;2022-07-23T17:40:34;26.00;77.10
46732;DHT22;32477;51.474;5.696;2022-07-23T17:43:02;25.90;77.40
46732;DHT22;32477;51.474;5.696;2022-07-23T17:45:28;25.80;78.00
46732;DHT22;32477;51.474;5.696;2022-07-23T17:48:04;25.80;78.90
46732;DHT22;32477;51.474;5.696;2022-07-23T17:50:43;25.80;77.70
46732;DHT22;32477;51.474;5.696;2022-07-23T17:53:20;25.70;78.50
46732;DHT22;32477;51.474;5.696;2022-07-23T17:55:47;25.60;77.80
46732;DHT22;32477;51.474;5.696;2022-07-23T17:58:22;25.40;78.50
46732;DHT22;32477;51.474;5.696;2022-07-23T18:04:03;25.30;79.40
46732;DHT22;32477;51.474;5.696;2022-07-23T18:06:33;25.20;79.60
46732;DHT22;32477;51.474;5.696;2022-07-23T18:09:20;25.00;80.00
46732;DHT22;32477;51.474;5.696;2022-07-23T18:12:04;25.00;79.50
46732;DHT22;32477;51.474;5.696;2022-07-23T18:14:32;25.00;79.60
46732;DHT22;32477;51.474;5.696;2022-07-23T18:16:58;25.00;79.80
46732;DHT22;32477;51.474;5.696;2022-07-23T18:19:27;24.90;80.10
46732;DHT22;32477;51.474;5.696;2022-07-23T18:21:54;24.70;80.80
46732;DHT22;32477;51.474;5.696;2022-07-23T18:24:23;24.60;82.10
46732;DHT22;32477;51.474;5.696;2022-07-23T18:26:50;24.50;82.00
46732;DHT22;32477;51.474;5.696;2022-07-23T18:29:16;24.30;81.80
46732;DHT22;32477;51.474;5.696;2022-07-23T18:31:42;24.20;82.20
46732;DHT22;32477;51.474;5.696;2022-07-23T18:34:08;24.10;82.10
46732;DHT22;32477;51.474;5.696;2022-07-23T18:36:34;24.10;82.60
46732;DHT22;32477;51.474;5.696;2022-07-23T18:39:00;24.00;82.80
46732;DHT22;32477;51.474;5.696;2022-07-23T18:41:26;24.00;82.90
46732;DHT22;32477;51.474;5.696;2022-07-23T18:43:52;23.90;82.90
46732;DHT22;32477;51.474;5.696;2022-07-23T18:46:18;23.90;83.40
46732;DHT22;32477;51.474;5.696;2022-07-23T18:48:43;23.80;83.70
46732;DHT22;32477;51.474;5.696;2022-07-23T18:51:09;23.70;84.10
46732;DHT22;32477;51.474;5.696;2022-07-23T18:53:35;23.70;84.40
46732;DHT22;32477;51.474;5.696;2022-07-23T18:56:01;23.60;85.00
46732;DHT22;32477;51.474;5.696;2022-07-23T18:58:30;23.50;85.60
46732;DHT22;32477;51.474;5.696;2022-07-23T19:00:56;23.40;86.20
46732;DHT22;32477;51.474;5.696;2022-07-23T19:03:26;23.30;86.50
46732;DHT22;32477;51.474;5.696;2022-07-23T19:05:55;23.20;87.20
46732;DHT22;32477;51.474;5.696;2022-07-23T19:08:21;23.10;87.90
46732;DHT22;32477;51.474;5.696;2022-07-23T19:11:00;23.10;88.90
46732;DHT22;32477;51.474;5.696;2022-07-23T19:16:49;22.90;90.30
46732;DHT22;32477;51.474;5.696;2022-07-23T19:19:17;22.80;90.70
46732;DHT22;32477;51.474;5.696;2022-07-23T19:22:00;22.60;91.10
46732;DHT22;32477;51.474;5.696;2022-07-23T19:24:35;22.50;91.90
46732;DHT22;32477;51.474;5.696;2022-07-23T19:27:09;22.30;92.40
46732;DHT22;32477;51.474;5.696;2022-07-23T19:29:36;22.20;92.90
46732;DHT22;32477;51.474;5.696;2022-07-23T19:32:06;22.10;93.10
46732;DHT22;32477;51.474;5.696;2022-07-23T19:34:32;22.00;94.00
46732;DHT22;32477;51.474;5.696;2022-07-23T19:36:59;21.80;94.50
46732;DHT22;32477;51.474;5.696;2022-07-23T19:39:26;21.80;95.10
46732;DHT22;32477;51.474;5.696;2022-07-23T19:41:52;21.70;95.80
46732;DHT22;32477;51.474;5.696;2022-07-23T19:44:27;21.60;96.50
46732;DHT22;32477;51.474;5.696;2022-07-23T19:46:52;21.40;97.30
46732;DHT22;32477;51.474;5.696;2022-07-23T19:49:27;21.30;98.10
46732;DHT22;32477;51.474;5.696;2022-07-23T19:51:53;21.20;98.80
46732;DHT22;32477;51.474;5.696;2022-07-23T19:54:19;21.10;99.40
46732;DHT22;32477;51.474;5.696;2022-07-23T19:56:49;21.10;99.90
46732;DHT22;32477;51.474;5.696;2022-07-23T19:59:21;21.00;99.90
46732;DHT22;32477;51.474;5.696;2022-07-23T20:01:49;21.00;99.90
46732;DHT22;32477;51.474;5.696;2022-07-23T20:04:15;20.90;99.90
46732;DHT22;32477;51.474;5.696;2022-07-23T20:06:48;20.90;99.90
46732;DHT22;32477;51.474;5.696;2022-07-23T20:09:14;20.80;99.90